Terminal Aerodrome Forecast
Issued by NWS

Home | Current Version | Previous Version | Graphics & Text | Print | Product List | Glossary On
Versions: 1 2 3 4 5 6 7 8 9 10 11 12 13 14 15 16
000
FTUS43 KGRB 292300
TAFMTW
TAF
KMTW 292325Z 3000/3024 03010KT P6SM SCT017 OVC028
      TEMPO 3000/3004 -SHRA BKN017
     FM300400 36010KT P6SM OVC017
     FM301400 02011KT P6SM OVC025
     FM302000 04007KT P6SM BKN030=

USA.gov is the U.S. government's official web portal to all federal, state and local government web resources and services.